Time;durP1;ratioP1;P1;durP2;ratioP2;P2;SDS_P1;SDS_P2;PMS_P1;PMS_P2;Temp;Humidity;BMP_temperature;BMP_pressure;BME280_temperature;BME280_humidity;BME280_pressure;Samples;Min_cycle;Max_cycle;Signal;HPM_P1;HPM_P2
2021/04/20 00:01:19;;;;;;;9.18;5.85;;;6.10;83.70;;;;;;4987386;28;20034;-74
2021/04/20 00:03:45;;;;;;;12.93;7.57;;;6.00;83.30;;;;;;4987134;28;20564;-74
2021/04/20 00:06:11;;;;;;;11.43;6.40;;;6.00;84.60;;;;;;4989052;28;20035;-75
2021/04/20 00:08:37;;;;;;;10.75;6.95;;;6.00;83.80;;;;;;4987149;28;20026;-74
2021/04/20 00:11:04;;;;;;;14.48;7.57;;;6.00;84.00;;;;;;4989595;28;20031;-76
2021/04/20 00:13:29;;;;;;;10.80;7.90;;;6.00;83.60;;;;;;4985614;28;20516;-74
2021/04/20 00:15:55;;;;;;;13.27;8.20;;;6.00;83.60;;;;;;4993788;28;20015;-74
2021/04/20 00:18:21;;;;;;;14.73;7.88;;;6.10;83.70;;;;;;4987891;28;20042;-75
2021/04/20 00:20:47;;;;;;;15.30;8.35;;;6.10;83.80;;;;;;4985529;28;20049;-75
2021/04/20 00:23:13;;;;;;;11.52;7.53;;;6.20;83.70;;;;;;4987197;28;20050;-74
2021/04/20 00:25:39;;;;;;;13.70;9.00;;;6.20;83.70;;;;;;4987198;28;20033;-75
2021/04/20 00:28:05;;;;;;;13.77;8.70;;;6.10;84.00;;;;;;4985846;28;20026;-75
2021/04/20 00:30:31;;;;;;;16.77;8.15;;;6.10;84.40;;;;;;4987025;28;20038;-74
2021/04/20 00:32:56;;;;;;;14.88;8.27;;;6.10;84.30;;;;;;4986983;28;20037;-74
2021/04/20 00:35:22;;;;;;;13.10;8.07;;;6.10;84.30;;;;;;4986659;28;20100;-74
2021/04/20 00:37:48;;;;;;;12.52;8.05;;;6.20;84.00;;;;;;4986987;28;20114;-75
2021/04/20 00:40:16;;;;;;;15.30;8.98;;;6.10;84.10;;;;;;4987108;28;20473;-75
2021/04/20 00:42:56;;;;;;;18.05;9.32;;;6.10;84.30;;;;;;4986954;28;20026;-75
2021/04/20 00:45:25;;;;;;;18.95;9.98;;;6.20;84.40;;;;;;4985870;28;20160;-74
2021/04/20 00:47:51;;;;;;;;;;;6.20;84.00;;;;;;4986721;28;20561;-74
2021/04/20 00:50:20;;;;;;;15.30;8.75;;;6.20;83.90;;;;;;4985974;28;19940;-75
2021/04/20 00:52:46;;;;;;;12.27;8.18;;;6.20;83.90;;;;;;4986671;28;20022;-74
2021/04/20 00:55:12;;;;;;;13.07;8.27;;;6.30;83.70;;;;;;4986570;28;20032;-74
2021/04/20 00:57:38;;;;;;;14.98;8.70;;;6.20;83.90;;;;;;4987025;28;20026;-74
2021/04/20 01:00:12;;;;;;;13.45;7.85;;;6.10;84.10;;;;;;4987264;28;20601;-75
2021/04/20 01:02:38;;;;;;;14.77;8.70;;;6.10;84.10;;;;;;4977886;28;20046;-74
2021/04/20 01:05:10;;;;;;;11.93;6.70;;;6.00;84.30;;;;;;4982872;28;20100;-74
2021/04/20 01:07:37;;;;;;;15.43;8.63;;;6.10;84.40;;;;;;4985752;28;20034;-74
2021/04/20 01:10:04;;;;;;;14.23;8.45;;;6.00;84.30;;;;;;4983918;28;20109;-74
2021/04/20 01:12:30;;;;;;;13.43;7.63;;;6.10;84.20;;;;;;4987750;28;20018;-75
2021/04/20 01:14:57;;;;;;;14.73;9.18;;;6.10;83.90;;;;;;4984143;28;20030;-74
2021/04/20 01:17:26;;;;;;;15.80;8.93;;;6.10;83.80;;;;;;4986556;28;20612;-75
2021/04/20 01:19:55;;;;;;;16.67;10.35;;;6.10;84.60;;;;;;4984763;28;20039;-74
2021/04/20 01:22:22;;;;;;;19.75;10.48;;;6.20;84.10;;;;;;4981645;28;20033;-74
2021/04/20 01:24:48;;;;;;;16.98;9.70;;;6.20;84.00;;;;;;4985386;28;20019;-74
2021/04/20 01:27:14;;;;;;;18.27;11.05;;;6.20;84.00;;;;;;4985417;28;20030;-74
2021/04/20 01:29:40;;;;;;;16.98;9.80;;;6.20;84.10;;;;;;4987943;28;20077;-74
2021/04/20 01:32:07;;;;;;;18.27;9.52;;;6.20;83.60;;;;;;4990791;28;20026;-75
2021/04/20 01:34:32;;;;;;;18.25;10.18;;;6.20;83.70;;;;;;4990154;28;20027;-73
2021/04/20 01:36:58;;;;;;;15.93;9.85;;;6.20;84.40;;;;;;4986727;28;20033;-74
2021/04/20 01:39:23;;;;;;;15.43;10.02;;;6.20;85.00;;;;;;4985256;28;20173;-75
2021/04/20 01:41:51;;;;;;;19.73;9.68;;;6.10;84.20;;;;;;4989560;28;20041;-75
2021/04/20 01:44:17;;;;;;;19.40;10.57;;;6.10;84.30;;;;;;4989180;28;20427;-74
2021/04/20 01:46:42;;;;;;;20.17;11.43;;;6.10;84.40;;;;;;4989015;28;20057;-74
2021/04/20 01:49:08;;;;;;;19.55;10.50;;;6.10;84.60;;;;;;4989576;28;20057;-74
2021/04/20 01:51:34;;;;;;;18.15;10.07;;;6.10;84.80;;;;;;4990009;28;20026;-74
2021/04/20 01:54:00;;;;;;;16.98;9.95;;;6.10;84.60;;;;;;4985872;28;20026;-74
2021/04/20 01:56:28;;;;;;;18.63;10.38;;;6.10;84.40;;;;;;4988007;28;20436;-75
2021/04/20 01:58:54;;;;;;;17.67;10.43;;;6.10;84.40;;;;;;4988021;28;20501;-74
2021/04/20 02:01:24;;;;;;;18.58;11.48;;;6.20;84.20;;;;;;4981250;28;20103;-74
2021/04/20 02:03:51;;;;;;;19.63;10.82;;;6.20;84.30;;;;;;4985535;28;20034;-74
2021/04/20 02:06:18;;;;;;;18.23;10.30;;;6.20;85.20;;;;;;4988455;28;20037;-74
2021/04/20 02:08:45;;;;;;;18.33;11.43;;;6.20;84.10;;;;;;4987123;28;20061;-74
2021/04/20 02:11:14;;;;;;;18.23;10.82;;;6.20;84.00;;;;;;4989917;28;20057;-73
2021/04/20 02:13:40;;;;;;;18.95;10.25;;;6.20;84.30;;;;;;4986887;28;20393;-74
2021/04/20 02:16:07;;;;;;;18.75;10.07;;;6.20;84.40;;;;;;4990272;28;20030;-74
2021/04/20 02:18:38;;;;;;;17.77;11.10;;;6.20;84.20;;;;;;4987464;28;20034;-74
2021/04/20 02:21:04;;;;;;;18.10;11.13;;;6.30;84.10;;;;;;4982180;28;20692;-75
2021/04/20 02:23:30;;;;;;;17.33;9.52;;;6.30;84.20;;;;;;4988281;28;20652;-74
2021/04/20 02:26:03;;;;;;;18.48;10.98;;;6.30;84.10;;;;;;4985052;28;20026;-74
2021/04/20 02:28:31;;;;;;;16.73;10.20;;;6.30;84.10;;;;;;4990367;28;20034;-74
2021/04/20 02:31:04;;;;;;;22.98;11.65;;;6.30;84.10;;;;;;4986772;28;20038;-75
2021/04/20 02:33:30;;;;;;;20.67;11.50;;;6.30;84.20;;;;;;4989745;28;20733;-74
2021/04/20 02:35:59;;;;;;;15.48;10.00;;;6.30;84.80;;;;;;4989141;28;20433;-74
2021/04/20 02:38:27;;;;;;;18.38;10.27;;;6.30;84.60;;;;;;4989517;28;20026;-74
2021/04/20 02:40:54;;;;;;;20.63;11.13;;;6.30;84.90;;;;;;4985670;28;20552;-74
2021/04/20 02:43:21;;;;;;;18.02;10.93;;;6.20;85.20;;;;;;4987698;28;20060;-74
2021/04/20 02:45:52;;;;;;;18.73;10.93;;;6.20;85.20;;;;;;4987151;28;20030;-74
2021/04/20 02:48:18;;;;;;;19.98;11.73;;;6.20;86.30;;;;;;4987460;28;20053;-74
2021/04/20 02:50:45;;;;;;;21.75;10.88;;;6.20;85.30;;;;;;4990244;28;20101;-74
2021/04/20 02:53:17;;;;;;;21.77;11.45;;;6.20;85.20;;;;;;4987718;28;21460;-74
2021/04/20 02:55:44;;;;;;;20.42;11.48;;;6.20;85.10;;;;;;4986846;28;20023;-74
2021/04/20 02:58:16;;;;;;;22.63;11.95;;;6.20;84.90;;;;;;4989728;28;20026;-74
2021/04/20 03:00:45;;;;;;;22.63;12.23;;;6.30;85.10;;;;;;4987700;28;20116;-74
2021/04/20 03:03:13;;;;;;;24.55;11.48;;;6.30;85.00;;;;;;4986859;28;20026;-74
2021/04/20 03:05:39;;;;;;;20.85;12.02;;;6.30;85.10;;;;;;4989239;28;20062;-74
2021/04/20 03:08:06;;;;;;;18.60;11.48;;;6.30;85.10;;;;;;4987825;28;20089;-74
2021/04/20 03:10:32;;;;;;;22.38;11.20;;;6.30;84.70;;;;;;4987664;28;20034;-74
2021/04/20 03:12:59;;;;;;;19.67;12.55;;;6.30;84.70;;;;;;4988464;28;20588;-74
2021/04/20 03:15:26;;;;;;;27.00;12.90;;;6.30;85.00;;;;;;4988577;28;20511;-74
2021/04/20 03:17:52;;;;;;;22.67;12.30;;;6.30;85.30;;;;;;4986869;28;20563;-74
2021/04/20 03:20:18;;;;;;;23.65;12.30;;;6.30;85.50;;;;;;4987932;28;20046;-74
2021/04/20 03:22:46;;;;;;;24.95;13.25;;;6.30;85.50;;;;;;4988651;28;20053;-74
2021/04/20 03:25:28;;;;;;;26.55;13.88;;;6.30;85.60;;;;;;4986039;28;20397;-74
2021/04/20 03:27:56;;;;;;;22.58;13.55;;;6.30;85.80;;;;;;4987258;28;20109;-74
2021/04/20 03:30:31;;;;;;;24.60;14.02;;;6.20;86.00;;;;;;4988824;28;20018;-73
2021/04/20 03:32:59;;;;;;;27.45;13.98;;;6.20;86.20;;;;;;4985235;28;20015;-74
2021/04/20 03:35:31;;;;;;;24.70;13.63;;;6.20;86.40;;;;;;4988016;28;20583;-74
2021/04/20 03:38:16;;;;;;;30.73;15.02;;;6.20;87.50;;;;;;4986337;28;20041;-74
2021/04/20 03:40:49;;;;;;;27.13;14.18;;;6.20;86.80;;;;;;4986801;28;20469;-74
2021/04/20 03:43:18;;;;;;;22.17;13.15;;;6.20;87.80;;;;;;5000861;28;20060;-74
2021/04/20 03:46:07;;;;;;;25.08;12.73;;;6.20;87.10;;;;;;4987950;28;20034;-74
2021/04/20 03:48:40;;;;;;;24.90;14.10;;;6.20;86.90;;;;;;4983450;28;20125;-74
2021/04/20 03:51:12;;;;;;;26.48;13.93;;;6.20;87.00;;;;;;4988810;28;20225;-74
2021/04/20 03:53:43;;;;;;;24.55;13.38;;;6.20;87.20;;;;;;4986602;28;20014;-74
2021/04/20 03:56:09;;;;;;;24.77;12.60;;;6.20;87.30;;;;;;4987151;28;20018;-73
2021/04/20 03:58:36;;;;;;;20.92;12.77;;;6.20;87.00;;;;;;4986452;28;20717;-74
2021/04/20 04:01:06;;;;;;;25.20;14.20;;;6.20;86.80;;;;;;4986548;28;20038;-74
2021/04/20 04:03:35;;;;;;;27.05;14.77;;;6.20;86.90;;;;;;4980048;28;20034;-74
2021/04/20 04:06:03;;;;;;;28.90;14.77;;;6.20;87.00;;;;;;4984991;28;20784;-74
2021/04/20 04:08:31;;;;;;;26.05;14.40;;;6.20;86.80;;;;;;4982945;28;20034;-74
2021/04/20 04:10:59;;;;;;;29.77;13.80;;;6.20;86.90;;;;;;4978156;28;20018;-74
2021/04/20 04:13:27;;;;;;;24.00;13.38;;;6.20;86.70;;;;;;4975746;28;20026;-74
2021/04/20 04:15:59;;;;;;;30.52;13.75;;;6.20;86.70;;;;;;4986116;28;20061;-73
2021/04/20 04:18:27;;;;;;;26.65;14.60;;;6.20;86.70;;;;;;4983885;28;20115;-73
2021/04/20 04:20:55;;;;;;;27.80;14.30;;;6.20;87.00;;;;;;4985825;28;20436;-73
2021/04/20 04:23:25;;;;;;;28.38;13.80;;;6.20;87.20;;;;;;4980927;28;20092;-74
2021/04/20 04:25:58;;;;;;;25.95;13.98;;;6.20;87.20;;;;;;4977255;28;20038;-74
2021/04/20 04:28:24;;;;;;;25.65;14.18;;;6.20;86.90;;;;;;4983590;28;20042;-73
2021/04/20 04:30:51;;;;;;;29.75;15.32;;;6.20;86.80;;;;;;4985733;28;20030;-74
2021/04/20 04:33:18;;;;;;;23.00;13.55;;;6.20;86.60;;;;;;4977451;28;20022;-74
2021/04/20 04:35:47;;;;;;;28.55;13.07;;;6.20;86.80;;;;;;4977423;28;20026;-73
2021/04/20 04:38:13;;;;;;;23.80;13.38;;;6.20;87.00;;;;;;4976905;28;20041;-74
2021/04/20 04:40:40;;;;;;;27.23;13.70;;;6.20;86.80;;;;;;4982927;28;20023;-74
2021/04/20 04:43:06;;;;;;;25.65;13.73;;;6.20;86.80;;;;;;4979661;28;20027;-73
2021/04/20 04:45:32;;;;;;;29.73;14.40;;;6.20;87.00;;;;;;4986137;28;20045;-73
2021/04/20 04:47:58;;;;;;;26.83;14.30;;;6.20;87.20;;;;;;4983878;28;20066;-74
2021/04/20 04:50:25;;;;;;;28.27;14.18;;;6.20;87.40;;;;;;4980371;28;20133;-73
2021/04/20 04:52:51;;;;;;;26.10;14.85;;;6.20;87.40;;;;;;4974934;28;20030;-73
2021/04/20 04:55:17;;;;;;;27.15;14.50;;;6.20;87.30;;;;;;4981313;28;20061;-73
2021/04/20 04:57:46;;;;;;;24.80;14.30;;;6.20;87.50;;;;;;4985154;28;20061;-73
2021/04/20 05:00:12;;;;;;;30.35;14.88;;;6.20;87.30;;;;;;4983706;28;20084;-74
2021/04/20 05:02:42;;;;;;;26.08;13.35;;;6.20;87.00;;;;;;4987400;28;20019;-73
2021/04/20 05:05:14;;;;;;;31.02;14.52;;;6.30;86.90;;;;;;4985473;28;20029;-73
2021/04/20 05:07:40;;;;;;;28.85;13.77;;;6.30;87.00;;;;;;4986745;28;20504;-73
2021/04/20 05:10:08;;;;;;;28.35;15.55;;;6.30;87.30;;;;;;4987315;28;20031;-73
2021/04/20 05:12:34;;;;;;;;;;;6.20;87.10;;;;;;4988338;28;20022;-73
2021/04/20 05:15:08;;;;;;;26.92;14.23;;;6.30;87.00;;;;;;4985001;28;19920;-74
2021/04/20 05:17:36;;;;;;;27.35;14.32;;;6.30;87.00;;;;;;4987682;28;20026;-73
2021/04/20 05:20:03;;;;;;;24.63;14.63;;;6.30;86.90;;;;;;4986516;28;20153;-73
2021/04/20 05:22:29;;;;;;;24.15;13.63;;;6.30;86.90;;;;;;4983290;28;20026;-73
2021/04/20 05:24:54;;;;;;;25.17;14.43;;;6.30;86.70;;;;;;4985895;28;20031;-73
2021/04/20 05:27:20;;;;;;;36.97;15.57;;;6.30;86.60;;;;;;4988805;28;20727;-73
2021/04/20 05:29:46;;;;;;;24.23;12.43;;;6.30;86.50;;;;;;4986769;28;20041;-73
2021/04/20 05:32:11;;;;;;;29.17;14.10;;;6.40;86.60;;;;;;4982584;28;20030;-73
2021/04/20 05:34:37;;;;;;;30.92;15.70;;;6.30;87.00;;;;;;4980878;28;20516;-72
2021/04/20 05:37:03;;;;;;;33.50;15.82;;;6.30;87.40;;;;;;4983918;28;20497;-74
2021/04/20 05:39:29;;;;;;;31.13;16.02;;;6.30;87.50;;;;;;4984647;28;20117;-73
2021/04/20 05:41:55;;;;;;;26.80;13.77;;;6.30;87.60;;;;;;4981757;28;20120;-73
2021/04/20 05:44:20;;;;;;;32.72;14.88;;;6.30;87.30;;;;;;4985029;28;20672;-74
2021/04/20 05:46:48;;;;;;;29.98;15.07;;;6.30;87.30;;;;;;4975496;28;20033;-73
2021/04/20 05:49:19;;;;;;;33.17;15.30;;;6.30;87.10;;;;;;4985786;28;20115;-74
2021/04/20 05:51:45;;;;;;;29.77;15.50;;;6.40;87.50;;;;;;4985824;28;20023;-73
2021/04/20 05:54:11;;;;;;;31.70;15.43;;;6.40;87.50;;;;;;4984657;28;20026;-73
2021/04/20 05:56:37;;;;;;;27.60;15.85;;;6.40;88.20;;;;;;4985195;28;20027;-74
2021/04/20 05:59:04;;;;;;;26.90;13.63;;;6.40;87.30;;;;;;4982986;28;20034;-74
2021/04/20 06:01:31;;;;;;;29.67;16.63;;;6.50;87.60;;;;;;4980321;28;20031;-72
2021/04/20 06:03:57;;;;;;;30.08;15.27;;;6.50;87.40;;;;;;4984112;28;20022;-73
2021/04/20 06:06:24;;;;;;;30.30;14.82;;;6.50;87.50;;;;;;4987957;28;20499;-73
2021/04/20 06:08:52;;;;;;;29.08;15.55;;;6.60;87.30;;;;;;4983739;28;20449;-73
2021/04/20 06:11:20;;;;;;;32.97;14.90;;;6.60;86.70;;;;;;4983899;28;20836;-74
2021/04/20 06:13:46;;;;;;;28.55;14.93;;;6.70;86.50;;;;;;4984732;28;20041;-74
2021/04/20 06:16:12;;;;;;;28.75;14.63;;;6.70;86.40;;;;;;4987819;28;20045;-73
2021/04/20 06:18:39;;;;;;;30.85;14.68;;;6.70;86.40;;;;;;4987608;28;20030;-73
2021/04/20 06:21:06;;;;;;;31.80;16.08;;;6.70;86.00;;;;;;4984188;28;20038;-73
2021/04/20 06:23:34;;;;;;;32.05;14.82;;;6.70;85.80;;;;;;4977157;28;20039;-74
2021/04/20 06:26:02;;;;;;;31.35;15.23;;;6.80;85.90;;;;;;4979606;28;20031;-73
2021/04/20 06:28:30;;;;;;;30.80;15.60;;;6.70;85.90;;;;;;4978913;28;104289;-73
2021/04/20 06:31:01;;;;;;;26.10;14.55;;;6.80;85.80;;;;;;4986935;28;20031;-73
2021/04/20 06:33:31;;;;;;;31.85;14.80;;;6.80;86.00;;;;;;4998346;28;20036;-73
2021/04/20 06:35:57;;;;;;;29.75;15.45;;;6.80;86.10;;;;;;5019759;28;20030;-72
2021/04/20 06:38:24;;;;;;;28.55;15.40;;;6.80;86.10;;;;;;5003697;28;20025;-72
2021/04/20 06:40:53;;;;;;;29.45;14.32;;;6.90;86.10;;;;;;4997870;28;20113;-73
2021/04/20 06:43:29;;;;;;;28.50;14.05;;;6.90;86.40;;;;;;5003032;28;20030;-72
2021/04/20 06:46:04;;;;;;;30.30;15.85;;;7.00;86.40;;;;;;4998805;28;20512;-73
2021/04/20 06:48:46;;;;;;;36.00;15.60;;;7.10;86.30;;;;;;5001214;28;20153;-73
2021/04/20 06:51:29;;;;;;;32.67;15.60;;;7.10;86.10;;;;;;5000643;28;20061;-73
2021/04/20 06:53:57;;;;;;;32.17;16.02;;;7.10;86.00;;;;;;4999681;28;20033;-73
2021/04/20 06:56:40;;;;;;;30.63;15.90;;;7.20;85.90;;;;;;5003702;28;20560;-73
2021/04/20 06:59:36;;;;;;;32.78;15.48;;;7.20;85.60;;;;;;5006006;28;20046;-73
2021/04/20 07:02:16;;;;;;;32.88;16.75;;;7.30;85.90;;;;;;4981073;28;20420;-72
2021/04/20 07:04:44;;;;;;;31.00;15.23;;;7.40;86.30;;;;;;4984691;28;20228;-73
2021/04/20 07:07:43;;;;;;;33.20;14.50;;;7.40;85.70;;;;;;4988405;28;20038;-72
2021/04/20 07:10:22;;;;;;;26.02;15.52;;;7.50;86.40;;;;;;4977646;28;20027;-72
2021/04/20 07:12:52;;;;;;;32.10;17.13;;;7.60;86.80;;;;;;4985082;28;20389;-73
2021/04/20 07:15:21;;;;;;;31.42;16.15;;;7.70;86.70;;;;;;4983291;28;20042;-72
2021/04/20 07:18:05;;;;;;;30.52;16.33;;;7.90;86.30;;;;;;4987760;28;20041;-73
2021/04/20 07:20:55;;;;;;;32.80;16.17;;;8.00;84.70;;;;;;4981523;28;20034;-73
2021/04/20 07:23:48;;;;;;;31.17;16.42;;;8.00;84.40;;;;;;4988224;28;20034;-74
2021/04/20 07:26:35;;;;;;;29.92;15.43;;;8.10;84.20;;;;;;4984047;28;20029;-73
2021/04/20 07:29:16;;;;;;;30.00;15.02;;;8.10;84.50;;;;;;4984746;28;20029;-73
2021/04/20 07:32:07;;;;;;;30.75;15.55;;;8.20;83.10;;;;;;4997714;28;20026;-73
2021/04/20 07:35:00;;;;;;;32.05;15.65;;;8.20;82.40;;;;;;4998658;28;20022;-73
2021/04/20 07:37:42;;;;;;;29.52;15.00;;;8.20;83.30;;;;;;5005540;28;20076;-73
2021/04/20 07:40:08;;;;;;;31.52;15.73;;;8.20;83.60;;;;;;5002386;28;20109;-73
2021/04/20 07:43:06;;;;;;;28.98;14.77;;;8.20;82.90;;;;;;5003055;28;20029;-73
2021/04/20 07:45:59;;;;;;;31.73;15.30;;;8.20;83.10;;;;;;5008065;28;20070;-73
2021/04/20 07:49:01;;;;;;;30.48;16.40;;;8.20;82.80;;;;;;5001979;28;20030;-72
2021/04/20 07:51:45;;;;;;;26.58;14.13;;;8.30;83.30;;;;;;5004351;28;20493;-73
2021/04/20 07:54:15;;;;;;;34.72;15.82;;;8.30;82.90;;;;;;5004812;28;20036;-72
2021/04/20 07:56:48;;;;;;;30.42;15.43;;;8.30;82.50;;;;;;5008139;28;20044;-73
2021/04/20 07:59:19;;;;;;;30.20;15.25;;;8.30;83.00;;;;;;5006778;28;20069;-72
2021/04/20 08:01:50;;;;;;;31.10;16.25;;;8.40;83.30;;;;;;5006924;28;20092;-73
2021/04/20 08:04:41;;;;;;;30.70;15.23;;;8.40;82.60;;;;;;5006024;28;20109;-72
2021/04/20 08:07:12;;;;;;;28.08;15.07;;;8.50;82.80;;;;;;5001528;28;20028;-72
2021/04/20 08:09:42;;;;;;;29.48;15.40;;;8.60;82.60;;;;;;5004758;28;20038;-72
2021/04/20 08:12:15;;;;;;;29.40;15.25;;;8.60;82.90;;;;;;5006353;28;20026;-72
2021/04/20 08:15:00;;;;;;;31.73;16.15;;;8.60;82.60;;;;;;5001513;28;20512;-72
2021/04/20 08:17:44;;;;;;;26.90;14.02;;;8.70;82.00;;;;;;5008033;28;20120;-72
2021/04/20 08:20:14;;;;;;;32.08;15.35;;;8.60;82.20;;;;;;5006355;28;20064;-72
2021/04/20 08:22:40;;;;;;;33.90;15.23;;;8.80;82.20;;;;;;5004468;28;20114;-72
2021/04/20 08:25:27;;;;;;;31.00;16.10;;;8.80;82.30;;;;;;5002330;28;20038;-72
2021/04/20 08:28:24;;;;;;;30.15;16.35;;;8.80;82.10;;;;;;5007033;28;20052;-72
2021/04/20 08:30:59;;;;;;;29.45;15.73;;;8.90;82.90;;;;;;4998014;28;20443;-73
2021/04/20 08:33:29;;;;;;;29.13;15.85;;;9.00;82.80;;;;;;4995647;28;20030;-73
2021/04/20 08:35:58;;;;;;;32.83;15.95;;;9.10;82.60;;;;;;5001964;28;20026;-73
2021/04/20 08:39:15;;;;;;;29.98;14.65;;;9.20;82.30;;;;;;5002338;28;20057;-73
2021/04/20 08:41:49;;;;;;;29.08;14.68;;;9.30;81.10;;;;;;4962485;28;20050;-73
2021/04/20 08:44:36;;;;;;;27.92;14.52;;;9.50;80.80;;;;;;4963429;28;20569;-73
2021/04/20 08:47:16;;;;;;;28.67;14.07;;;9.50;79.90;;;;;;4990853;28;20095;-72
2021/04/20 08:50:01;;;;;;;30.38;13.77;;;9.70;80.10;;;;;;5001506;28;20029;-72
2021/04/20 08:52:46;;;;;;;28.10;14.35;;;9.80;79.10;;;;;;4999427;28;20045;-73
2021/04/20 08:55:21;;;;;;;27.42;13.48;;;10.00;78.50;;;;;;5004121;28;20109;-73
2021/04/20 08:58:04;;;;;;;26.70;13.45;;;9.90;75.10;;;;;;5003957;28;20030;-73
2021/04/20 09:01:11;;;;;;;27.42;13.63;;;9.90;75.80;;;;;;5002344;28;20033;-73
2021/04/20 09:04:03;;;;;;;25.03;13.30;;;9.90;76.00;;;;;;4987818;28;20038;-72
2021/04/20 09:06:51;;;;;;;26.05;13.88;;;9.90;76.70;;;;;;5000682;28;20779;-73
2021/04/20 09:09:20;;;;;;;29.63;15.07;;;9.90;76.90;;;;;;4999939;28;20052;-72
2021/04/20 09:11:50;;;;;;;28.42;13.65;;;9.90;77.00;;;;;;5006044;28;20030;-72
2021/04/20 09:14:25;;;;;;;27.77;14.75;;;10.00;76.80;;;;;;5005583;28;20087;-73
2021/04/20 09:16:51;;;;;;;26.30;13.40;;;10.00;76.00;;;;;;5005629;28;20033;-73
2021/04/20 09:19:34;;;;;;;28.70;14.30;;;10.00;77.10;;;;;;5005788;28;20154;-73
2021/04/20 09:22:07;;;;;;;26.20;13.30;;;9.90;76.60;;;;;;5006119;28;20030;-72
2021/04/20 09:24:42;;;;;;;28.42;13.85;;;9.90;77.50;;;;;;4998280;28;20117;-73
2021/04/20 09:27:13;;;;;;;24.23;13.48;;;9.90;77.60;;;;;;5004229;28;20029;-72
2021/04/20 09:29:56;;;;;;;26.67;13.13;;;10.00;77.20;;;;;;4997405;28;20054;-73
2021/04/20 09:32:28;;;;;;;26.60;12.88;;;10.00;76.10;;;;;;5006536;28;20045;-72
2021/04/20 09:34:55;;;;;;;24.25;12.50;;;10.10;76.40;;;;;;5000242;28;20041;-73
2021/04/20 09:37:23;;;;;;;26.33;13.32;;;10.00;74.50;;;;;;5004616;28;20026;-73
2021/04/20 09:39:54;;;;;;;26.67;12.27;;;10.00;74.70;;;;;;4996684;28;20025;-72
2021/04/20 09:42:21;;;;;;;24.80;13.57;;;10.00;75.40;;;;;;5005461;28;20030;-73
2021/04/20 09:44:46;;;;;;;23.25;12.73;;;10.10;75.70;;;;;;5006786;28;20026;-75
2021/04/20 09:47:21;;;;;;;28.92;13.80;;;10.10;75.50;;;;;;5005214;28;20059;-74
2021/04/20 09:49:58;;;;;;;22.85;12.20;;;10.10;76.30;;;;;;5004891;28;20033;-74
2021/04/20 09:52:36;;;;;;;24.02;12.07;;;10.20;74.10;;;;;;5013514;28;20068;-75
2021/04/20 09:55:20;;;;;;;26.35;12.38;;;10.20;74.10;;;;;;5008471;28;20037;-75
2021/04/20 09:57:49;;;;;;;24.10;11.57;;;10.40;73.60;;;;;;5025608;28;20057;-74
2021/04/20 10:00:16;;;;;;;24.55;12.88;;;10.40;71.20;;;;;;5010596;28;20021;-74
2021/04/20 10:02:58;;;;;;;24.25;12.48;;;10.40;71.90;;;;;;5004580;28;20030;-74
2021/04/20 10:05:30;;;;;;;25.88;11.90;;;10.50;71.60;;;;;;5005684;28;20026;-75
2021/04/20 10:08:29;;;;;;;19.40;11.25;;;10.50;71.40;;;;;;5008981;28;20049;-75
2021/04/20 10:11:31;;;;;;;22.42;12.45;;;10.70;72.10;;;;;;5012868;28;20026;-75
2021/04/20 10:14:41;;;;;;;25.38;11.68;;;10.90;72.20;;;;;;5007454;28;20069;-74
2021/04/20 10:17:16;;;;;;;19.75;10.73;;;11.00;71.50;;;;;;4974386;28;20045;-75
2021/04/20 10:20:06;;;;;;;20.40;10.80;;;11.00;68.00;;;;;;5004852;28;20091;-75
2021/04/20 10:22:48;;;;;;;22.50;10.25;;;11.00;69.80;;;;;;5006965;28;20106;-74
2021/04/20 10:25:38;;;;;;;23.95;12.50;;;11.20;70.70;;;;;;5010775;28;20060;-75
2021/04/20 10:28:15;;;;;;;23.80;12.43;;;11.30;70.20;;;;;;5013031;28;20030;-75
2021/04/20 10:30:43;;;;;;;25.35;11.55;;;11.30;68.70;;;;;;5007685;28;20116;-75
2021/04/20 10:33:12;;;;;;;23.35;12.93;;;11.30;69.00;;;;;;5006747;28;20115;-75
2021/04/20 10:35:39;;;;;;;21.77;12.65;;;11.40;67.80;;;;;;5007375;28;20025;-74
2021/04/20 10:38:14;;;;;;;21.55;11.57;;;11.50;66.50;;;;;;5009077;28;20066;-75
2021/04/20 10:40:44;;;;;;;23.58;12.13;;;11.60;67.80;;;;;;5006057;28;20030;-74
2021/04/20 10:43:12;;;;;;;21.77;11.80;;;11.50;66.80;;;;;;5009393;28;20045;-75
2021/04/20 10:45:40;;;;;;;24.20;12.65;;;11.50;66.60;;;;;;5008204;28;20040;-75
2021/04/20 10:48:07;;;;;;;22.98;11.85;;;11.50;66.10;;;;;;5005689;28;20030;-73
2021/04/20 10:50:35;;;;;;;22.58;13.07;;;11.40;66.30;;;;;;5005843;28;20025;-74
2021/04/20 10:53:12;;;;;;;25.08;11.70;;;11.40;66.40;;;;;;4993069;28;20034;-74
2021/04/20 10:56:01;;;;;;;22.63;11.95;;;11.40;66.80;;;;;;4992098;28;20072;-75
2021/04/20 10:58:27;;;;;;;;;;;11.40;66.10;;;;;;4997864;28;20030;-75
2021/04/20 11:00:54;;;;;;;22.60;12.15;;;11.40;66.30;;;;;;4997349;28;19921;-74
2021/04/20 11:03:28;;;;;;;17.75;10.50;;;11.40;67.00;;;;;;5006502;28;20057;-75
2021/04/20 11:05:54;;;;;;;27.08;11.82;;;11.60;67.10;;;;;;5000424;28;20489;-75
2021/04/20 11:08:38;;;;;;;23.75;12.05;;;11.60;67.30;;;;;;5007326;28;20084;-75
2021/04/20 11:11:04;;;;;;;25.08;10.90;;;11.70;66.20;;;;;;5005900;28;20033;-75
2021/04/20 11:13:38;;;;;;;20.35;11.38;;;11.60;65.40;;;;;;5007149;28;20049;-75
2021/04/20 11:16:09;;;;;;;17.80;10.65;;;11.60;65.50;;;;;;4997827;28;20053;-74
2021/04/20 11:18:38;;;;;;;23.38;10.85;;;11.70;64.10;;;;;;5002838;28;20413;-75
2021/04/20 11:21:08;;;;;;;21.85;11.27;;;11.70;64.10;;;;;;4998611;28;20053;-75
2021/04/20 11:23:39;;;;;;;20.60;10.25;;;11.70;63.90;;;;;;4998174;28;20037;-74
2021/04/20 11:26:14;;;;;;;20.88;10.88;;;11.80;63.80;;;;;;5003386;28;20080;-75
2021/04/20 11:28:43;;;;;;;19.60;10.45;;;11.80;64.00;;;;;;5016853;28;20354;-75
2021/04/20 11:31:18;;;;;;;20.30;11.43;;;11.70;62.70;;;;;;5005661;28;20030;-76
2021/04/20 11:33:47;;;;;;;18.40;9.98;;;11.80;61.80;;;;;;5005466;28;20026;-76
2021/04/20 11:36:25;;;;;;;16.13;9.70;;;11.90;61.70;;;;;;5007492;28;20090;-75
2021/04/20 11:38:53;;;;;;;16.55;9.77;;;12.00;62.90;;;;;;5005903;28;20495;-75
2021/04/20 11:41:30;;;;;;;19.77;11.18;;;12.20;61.60;;;;;;5008877;28;20080;-75
2021/04/20 11:43:59;;;;;;;17.63;10.20;;;12.20;61.30;;;;;;4998494;28;20034;-75
2021/04/20 11:46:27;;;;;;;17.33;9.77;;;12.20;60.40;;;;;;5006278;28;20110;-76
2021/04/20 11:48:56;;;;;;;15.13;9.05;;;12.10;60.10;;;;;;5008361;28;20102;-75
2021/04/20 11:51:32;;;;;;;18.33;11.68;;;12.10;60.20;;;;;;5005623;28;20038;-76
2021/04/20 11:53:58;;;;;;;17.80;9.35;;;12.20;59.60;;;;;;5003923;28;20370;-75
2021/04/20 11:56:25;;;;;;;16.80;10.15;;;12.20;59.50;;;;;;5008217;28;20509;-75
2021/04/20 11:58:55;;;;;;;19.40;9.88;;;12.20;60.00;;;;;;5005894;28;20030;-75
2021/04/20 12:01:22;;;;;;;17.40;10.18;;;12.10;58.70;;;;;;5001460;28;20038;-75
2021/04/20 12:03:54;;;;;;;21.20;9.88;;;12.10;59.20;;;;;;5004736;28;20032;-74
2021/04/20 12:06:21;;;;;;;18.05;9.52;;;12.10;61.20;;;;;;5003012;28;20392;-75
2021/04/20 12:08:53;;;;;;;18.45;9.15;;;12.20;60.90;;;;;;5005928;28;20104;-75
2021/04/20 12:11:20;;;;;;;17.23;9.40;;;12.20;60.00;;;;;;5006964;28;20030;-75
2021/04/20 12:13:49;;;;;;;18.08;9.65;;;12.20;59.30;;;;;;5005458;28;20723;-76
2021/04/20 12:16:16;;;;;;;16.40;9.90;;;12.20;59.60;;;;;;5005370;28;20077;-76
2021/04/20 12:18:45;;;;;;;20.83;10.20;;;12.20;61.30;;;;;;5006148;28;20094;-76
2021/04/20 12:21:18;;;;;;;15.90;9.70;;;12.20;60.50;;;;;;5003649;28;20054;-75
2021/04/20 12:23:49;;;;;;;20.35;10.30;;;12.20;60.30;;;;;;5003262;28;20026;-76
2021/04/20 12:26:15;;;;;;;20.95;10.32;;;12.10;61.00;;;;;;5003443;28;20083;-75
2021/04/20 12:28:49;;;;;;;17.73;9.88;;;12.10;60.30;;;;;;5007153;28;20022;-75
2021/04/20 12:31:16;;;;;;;18.08;9.60;;;12.10;60.60;;;;;;4999542;28;20038;-76
2021/04/20 12:33:46;;;;;;;17.98;10.68;;;12.10;61.30;;;;;;4998003;28;20450;-75
2021/04/20 12:36:26;;;;;;;17.38;10.07;;;12.10;61.40;;;;;;5003310;28;20477;-75
2021/04/20 12:38:55;;;;;;;19.05;9.43;;;12.10;61.80;;;;;;4999705;28;20091;-75
2021/04/20 12:41:22;;;;;;;18.13;9.85;;;12.10;59.90;;;;;;5004728;28;20037;-76
2021/04/20 12:43:51;;;;;;;19.38;10.38;;;12.10;60.30;;;;;;5001355;28;20113;-75
2021/04/20 12:46:22;;;;;;;17.27;9.75;;;12.20;61.70;;;;;;5003905;28;20400;-75
2021/04/20 12:48:48;;;;;;;21.67;11.05;;;12.20;61.10;;;;;;5004816;28;20183;-75
2021/04/20 12:51:17;;;;;;;16.30;10.52;;;12.20;62.20;;;;;;5007694;28;20021;-76
2021/04/20 12:53:48;;;;;;;17.33;10.20;;;12.20;59.40;;;;;;5004850;28;20024;-75
2021/04/20 12:56:54;;;;;;;18.83;11.05;;;12.30;59.30;;;;;;5007551;28;20053;-75
2021/04/20 12:59:25;;;;;;;18.35;10.45;;;12.40;59.80;;;;;;5002371;28;20041;-75